Time;durP1;ratioP1;P1;durP2;ratioP2;P2;SDS_P1;SDS_P2;PMS_P1;PMS_P2;Temp;Humidity;BMP_temperature;BMP_pressure;BME280_temperature;BME280_humidity;BME280_pressure;Samples;Min_cycle;Max_cycle;Signal;HPM_P1;HPM_P2
2023/10/08 00:02:52;;;;;;;7.13;2.92;;;;;;;;;;8349433;28;20063;-88
2023/10/08 00:06:59;;;;;;;5.65;2.85;;;;;;;;;;8334808;28;20507;-88
2023/10/08 00:11:06;;;;;;;5.78;2.78;;;;;;;;;;8347980;28;20052;-88
2023/10/08 00:15:10;;;;;;;9.15;3.15;;;;;;;;;;8335011;28;20497;-89
2023/10/08 00:19:13;;;;;;;9.13;4.88;;;;;;;;;;8339205;28;20179;-88
2023/10/08 00:23:18;;;;;;;9.68;3.55;;;;;;;;;;8354320;28;20128;-89
2023/10/08 00:27:21;;;;;;;4.60;2.15;;;;;;;;;;8334985;28;20103;-89
2023/10/08 00:31:30;;;;;;;6.00;2.22;;;;;;;;;;8340117;28;20102;-88
2023/10/08 00:35:32;;;;;;;6.18;2.20;;;;;;;;;;8347852;28;20064;-88
2023/10/08 00:39:37;;;;;;;4.63;2.53;;;;;;;;;;8334167;28;20508;-90
2023/10/08 00:43:42;;;;;;;7.22;2.47;;;;;;;;;;8341180;28;20087;-88
2023/10/08 00:47:45;;;;;;;7.47;2.60;;;;;;;;;;8338614;28;20500;-88
2023/10/08 00:51:56;;;;;;;5.65;2.20;;;;;;;;;;8349202;28;20052;-89
2023/10/08 00:56:06;;;;;;;5.70;2.42;;;;;;;;;;8336653;28;20046;-88
2023/10/08 01:00:17;;;;;;;7.60;2.67;;;;;;;;;;8344702;28;20396;-88
2023/10/08 01:04:23;;;;;;;4.55;2.65;;;;;;;;;;8341063;28;20501;-89
2023/10/08 01:08:36;;;;;;;4.10;2.38;;;;;;;;;;8333374;28;20120;-89
2023/10/08 01:12:54;;;;;;;5.18;2.40;;;;;;;;;;8348858;28;20041;-88
2023/10/08 01:16:58;;;;;;;4.45;2.50;;;;;;;;;;8348162;28;20057;-88
2023/10/08 01:21:11;;;;;;;5.05;2.25;;;;;;;;;;8347193;28;20052;-88
2023/10/08 01:25:22;;;;;;;3.95;2.00;;;;;;;;;;8349176;28;20087;-89
2023/10/08 01:29:28;;;;;;;5.50;2.22;;;;;;;;;;8332586;28;20540;-88
2023/10/08 01:33:32;;;;;;;5.07;2.30;;;;;;;;;;8334620;28;20078;-87
2023/10/08 01:37:34;;;;;;;5.80;2.15;;;;;;;;;;8342525;28;20041;-88
2023/10/08 01:41:40;;;;;;;6.40;2.30;;;;;;;;;;8343662;28;20045;-88
2023/10/08 01:45:43;;;;;;;6.38;2.25;;;;;;;;;;8338562;28;20048;-88
2023/10/08 01:49:47;;;;;;;7.07;2.53;;;;;;;;;;8343346;28;20045;-89
2023/10/08 01:53:50;;;;;;;7.57;2.70;;;;;;;;;;8356277;28;20037;-89
2023/10/08 01:57:56;;;;;;;5.57;2.60;;;;;;;;;;8361027;28;20480;-90
2023/10/08 02:01:59;;;;;;;8.68;2.95;;;;;;;;;;8356510;28;20079;-89
2023/10/08 02:06:05;;;;;;;9.45;2.63;;;;;;;;;;8360748;28;20037;-88
2023/10/08 02:10:10;;;;;;;5.47;2.05;;;;;;;;;;8357234;28;20401;-90
2023/10/08 02:14:15;;;;;;;4.72;2.20;;;;;;;;;;8357335;28;20041;-90
2023/10/08 02:18:18;;;;;;;5.40;2.13;;;;;;;;;;8352316;28;20401;-89
2023/10/08 02:22:21;;;;;;;5.13;2.17;;;;;;;;;;8346657;28;20121;-89
2023/10/08 02:26:24;;;;;;;9.75;2.55;;;;;;;;;;8333669;28;20057;-89
2023/10/08 02:30:28;;;;;;;7.50;2.63;;;;;;;;;;8342862;28;20064;-89
2023/10/08 02:34:31;;;;;;;7.72;2.72;;;;;;;;;;8340421;28;20721;-89
2023/10/08 02:38:37;;;;;;;25.15;7.47;;;;;;;;;;8330528;28;20052;-89
2023/10/08 02:42:41;;;;;;;8.82;2.92;;;;;;;;;;8342355;28;20045;-89
2023/10/08 02:46:47;;;;;;;8.65;3.45;;;;;;;;;;8338369;28;20447;-89
2023/10/08 02:50:53;;;;;;;11.95;3.60;;;;;;;;;;8336864;28;20043;-88
2023/10/08 02:54:56;;;;;;;17.05;5.95;;;;;;;;;;8350410;28;20049;-89
2023/10/08 02:59:00;;;;;;;20.75;7.97;;;;;;;;;;8331094;28;20502;-88
2023/10/08 03:03:15;;;;;;;17.70;5.63;;;;;;;;;;8330034;28;20492;-89
2023/10/08 03:07:22;;;;;;;33.40;13.48;;;;;;;;;;8315627;28;20056;-88
2023/10/08 03:11:26;;;;;;;24.17;6.32;;;;;;;;;;8329564;28;20050;-89
2023/10/08 03:15:29;;;;;;;26.02;10.63;;;;;;;;;;8341694;28;20504;-88
2023/10/08 03:19:33;;;;;;;20.83;9.00;;;;;;;;;;8348442;28;20049;-88
2023/10/08 03:23:36;;;;;;;12.38;5.00;;;;;;;;;;8353414;28;20045;-88
2023/10/08 03:27:41;;;;;;;19.85;5.93;;;;;;;;;;8341507;28;20053;-89
2023/10/08 03:31:51;;;;;;;12.05;4.53;;;;;;;;;;8333711;28;20045;-90
2023/10/08 03:35:55;;;;;;;18.80;4.53;;;;;;;;;;8347100;28;20052;-88
2023/10/08 03:40:21;;;;;;;13.70;4.35;;;;;;;;;;8343945;28;20045;-88
2023/10/08 03:44:24;;;;;;;11.50;4.53;;;;;;;;;;8341776;28;20541;-89
2023/10/08 03:48:33;;;;;;;19.17;4.40;;;;;;;;;;8366769;28;20127;-89
2023/10/08 03:52:38;;;;;;;8.77;4.50;;;;;;;;;;8345999;28;20451;-88
2023/10/08 03:56:45;;;;;;;18.52;4.95;;;;;;;;;;8341664;28;20120;-88
2023/10/08 04:00:49;;;;;;;19.77;6.95;;;;;;;;;;8350039;28;20476;-88
2023/10/08 04:04:53;;;;;;;22.20;7.40;;;;;;;;;;8340459;28;20037;-89
2023/10/08 04:09:11;;;;;;;20.48;5.60;;;;;;;;;;8343331;28;20049;-88
2023/10/08 04:13:16;;;;;;;14.23;5.82;;;;;;;;;;8336136;28;20127;-88
2023/10/08 04:17:22;;;;;;;10.13;5.32;;;;;;;;;;8340362;28;20626;-87
2023/10/08 04:21:27;;;;;;;8.63;4.22;;;;;;;;;;8329091;28;20393;-89
2023/10/08 04:25:33;;;;;;;8.38;4.18;;;;;;;;;;8343421;28;20124;-89
2023/10/08 04:29:37;;;;;;;11.60;4.10;;;;;;;;;;8335083;28;20051;-90
2023/10/08 04:33:41;;;;;;;13.68;4.97;;;;;;;;;;8337155;28;20041;-88
2023/10/08 04:37:45;;;;;;;6.72;4.20;;;;;;;;;;8354277;28;20436;-88
2023/10/08 04:41:54;;;;;;;9.88;4.75;;;;;;;;;;8340563;28;20049;-89
2023/10/08 04:45:58;;;;;;;10.27;4.60;;;;;;;;;;8337632;28;20041;-88
2023/10/08 04:50:04;;;;;;;13.65;5.25;;;;;;;;;;8343878;28;20041;-87
2023/10/08 04:54:07;;;;;;;10.68;5.43;;;;;;;;;;8339183;28;20041;-88
2023/10/08 04:58:21;;;;;;;16.85;5.32;;;;;;;;;;8338259;28;20049;-89
2023/10/08 05:02:34;;;;;;;14.50;5.32;;;;;;;;;;8341983;28;20053;-89
2023/10/08 05:07:00;;;;;;;11.93;5.30;;;;;;;;;;8336657;28;20489;-89
2023/10/08 05:11:24;;;;;;;13.55;5.65;;;;;;;;;;8354229;28;20381;-89
2023/10/08 05:15:37;;;;;;;15.45;5.35;;;;;;;;;;8344620;28;20053;-89
2023/10/08 05:20:17;;;;;;;14.23;5.80;;;;;;;;;;8344786;28;20041;-89
2023/10/08 05:24:27;;;;;;;9.63;5.05;;;;;;;;;;8342986;28;20044;-89
2023/10/08 05:28:30;;;;;;;17.37;6.23;;;;;;;;;;8351530;28;20563;-88
2023/10/08 05:33:05;;;;;;;12.65;6.43;;;;;;;;;;8336382;28;20534;-89
2023/10/08 05:41:38;;;;;;;15.35;6.40;;;;;;;;;;8338640;28;20559;-88
2023/10/08 05:46:18;;;;;;;17.52;7.28;;;;;;;;;;8341213;28;20046;-88
2023/10/08 05:54:36;;;;;;;17.58;6.97;;;;;;;;;;8349239;28;20128;-89
2023/10/08 05:58:45;;;;;;;14.88;6.78;;;;;;;;;;8333255;28;20099;-89
2023/10/08 06:03:09;;;;;;;14.52;6.50;;;;;;;;;;8353925;28;20053;-89
2023/10/08 06:07:20;;;;;;;12.98;6.15;;;;;;;;;;8341335;28;20087;-89
2023/10/08 06:11:37;;;;;;;13.50;6.27;;;;;;;;;;8340661;28;20076;-90
2023/10/08 06:15:48;;;;;;;13.60;5.97;;;;;;;;;;8352506;28;20045;-89
2023/10/08 06:19:52;;;;;;;12.77;6.05;;;;;;;;;;8341458;28;20052;-89
2023/10/08 06:23:57;;;;;;;13.48;6.25;;;;;;;;;;8337843;28;20540;-89
2023/10/08 06:28:02;;;;;;;15.55;6.07;;;;;;;;;;8359250;28;20049;-88
2023/10/08 06:32:07;;;;;;;14.32;7.45;;;;;;;;;;8346898;28;20492;-88
2023/10/08 06:36:15;;;;;;;10.10;4.88;;;;;;;;;;8358790;28;20045;-87
2023/10/08 06:44:38;;;;;;;11.27;4.75;;;;;;;;;;8344052;28;20511;-90
2023/10/08 06:48:42;;;;;;;11.20;4.75;;;;;;;;;;8347062;28;20123;-90
2023/10/08 06:52:45;;;;;;;9.07;4.38;;;;;;;;;;8357213;28;20566;-90
2023/10/08 06:56:53;;;;;;;9.50;3.88;;;;;;;;;;8334871;28;20045;-90
2023/10/08 07:00:58;;;;;;;6.88;3.25;;;;;;;;;;8316451;28;20076;-90
2023/10/08 07:05:09;;;;;;;5.45;2.70;;;;;;;;;;8350339;28;20455;-91
2023/10/08 07:09:22;;;;;;;5.37;2.90;;;;;;;;;;8344960;28;20120;-92
2023/10/08 07:13:29;;;;;;;6.72;2.50;;;;;;;;;;8321416;28;20057;-90
2023/10/08 07:17:40;;;;;;;7.22;2.78;;;;;;;;;;8337497;28;20033;-92
2023/10/08 07:21:45;;;;;;;5.70;2.40;;;;;;;;;;8335884;28;20477;-93
2023/10/08 07:25:57;;;;;;;5.70;2.80;;;;;;;;;;8330876;28;20056;-90
2023/10/08 07:30:10;;;;;;;8.40;3.00;;;;;;;;;;8329772;28;20049;-89
2023/10/08 07:34:18;;;;;;;5.90;2.90;;;;;;;;;;8337217;28;20510;-89
2023/10/08 07:38:21;;;;;;;9.38;3.00;;;;;;;;;;8319820;28;20058;-90
2023/10/08 07:42:30;;;;;;;6.80;2.63;;;;;;;;;;8335692;28;20049;-90
2023/10/08 07:46:42;;;;;;;4.20;2.20;;;;;;;;;;8347496;28;20492;-90
2023/10/08 07:50:50;;;;;;;4.68;2.05;;;;;;;;;;8344206;28;20050;-91
2023/10/08 07:54:59;;;;;;;4.80;1.92;;;;;;;;;;8330429;28;20045;-92
2023/10/08 07:59:08;;;;;;;2.20;1.60;;;;;;;;;;8354744;28;20079;-92
2023/10/08 08:03:13;;;;;;;3.90;1.80;;;;;;;;;;8344897;28;20049;-90
2023/10/08 08:07:16;;;;;;;2.42;1.60;;;;;;;;;;8343418;28;20462;-91
2023/10/08 08:11:25;;;;;;;5.57;1.52;;;;;;;;;;8344139;28;20047;-91
2023/10/08 08:15:36;;;;;;;4.30;1.52;;;;;;;;;;8337721;28;20053;-93
2023/10/08 08:19:45;;;;;;;2.78;1.40;;;;;;;;;;8352951;28;20049;-90
2023/10/08 08:23:52;;;;;;;3.15;1.30;;;;;;;;;;8359900;28;20068;-91
2023/10/08 08:27:55;;;;;;;2.88;1.20;;;;;;;;;;8341867;28;20049;-92
2023/10/08 08:32:04;;;;;;;1.80;1.20;;;;;;;;;;8334428;28;20049;-92
2023/10/08 08:36:09;;;;;;;5.32;1.40;;;;;;;;;;8333475;28;20049;-93
2023/10/08 08:40:17;;;;;;;3.35;1.00;;;;;;;;;;8334393;28;20046;-92
2023/10/08 08:44:23;;;;;;;4.95;1.30;;;;;;;;;;8357269;28;20090;-91
2023/10/08 08:48:35;;;;;;;4.68;1.33;;;;;;;;;;8362534;28;20048;-95
2023/10/08 08:52:39;;;;;;;;;;;;;;;;;;8355912;28;20416;-95
2023/10/08 08:56:44;;;;;;;2.22;1.23;;;;;;;;;;8354522;28;19997;-93
2023/10/08 09:00:52;;;;;;;1.98;1.20;;;;;;;;;;8351593;28;20069;-92
2023/10/08 09:04:55;;;;;;;2.08;1.08;;;;;;;;;;8354448;28;20056;-96
2023/10/08 09:09:13;;;;;;;3.05;1.20;;;;;;;;;;8334730;28;20037;-91
2023/10/08 09:13:23;;;;;;;3.83;1.27;;;;;;;;;;8354013;28;20448;-92
2023/10/08 09:17:33;;;;;;;1.30;1.05;;;;;;;;;;8338887;28;20092;-95
2023/10/08 09:26:40;;;;;;;2.20;1.23;;;;;;;;;;8344505;28;20052;-94
2023/10/08 09:30:48;;;;;;;3.00;1.23;;;;;;;;;;8345406;28;20401;-95
2023/10/08 09:34:57;;;;;;;1.73;1.30;;;;;;;;;;8355517;28;20046;-95
2023/10/08 09:44:17;;;;;;;2.50;1.00;;;;;;;;;;8192717;29;20127;-96
2023/10/08 09:48:30;;;;;;;;;;;;;;;;;;8195674;29;20051;-96
2023/10/08 09:53:15;;;;;;;2.25;1.35;;;;;;;;;;8175186;29;20034;-93
2023/10/08 09:57:27;;;;;;;2.83;1.52;;;;;;;;;;8176752;29;20087;-93
2023/10/08 10:01:37;;;;;;;4.57;1.52;;;;;;;;;;8152958;29;20058;-94
2023/10/08 10:05:47;;;;;;;3.15;1.10;;;;;;;;;;8171500;29;20209;-92
2023/10/08 10:09:53;;;;;;;3.40;1.40;;;;;;;;;;8178497;29;20119;-93
2023/10/08 10:14:01;;;;;;;3.17;1.10;;;;;;;;;;8219887;28;20062;-92
2023/10/08 10:18:16;;;;;;;1.25;0.93;;;;;;;;;;8247655;28;20134;-94
2023/10/08 10:22:30;;;;;;;1.20;0.77;;;;;;;;;;8341588;28;20104;-94
2023/10/08 10:26:35;;;;;;;3.60;1.15;;;;;;;;;;8348955;28;20065;-93
2023/10/08 10:30:41;;;;;;;1.40;1.10;;;;;;;;;;8349748;28;20041;-91
2023/10/08 10:34:47;;;;;;;2.92;1.40;;;;;;;;;;8336550;28;20485;-91
2023/10/08 10:38:53;;;;;;;2.78;1.23;;;;;;;;;;8336838;28;20530;-92
2023/10/08 10:42:57;;;;;;;1.20;1.02;;;;;;;;;;8345347;28;20474;-90
2023/10/08 10:51:25;;;;;;;1.70;1.35;;;;;;;;;;8329835;28;20067;-91
2023/10/08 10:55:32;;;;;;;2.03;1.33;;;;;;;;;;8357631;28;20877;-91
2023/10/08 10:59:38;;;;;;;1.77;1.20;;;;;;;;;;8352739;28;20087;-93
2023/10/08 11:03:48;;;;;;;2.67;1.67;;;;;;;;;;8380211;23;20078;-91
2023/10/08 11:08:25;;;;;;;1.77;1.15;;;;;;;;;;8378547;28;20123;-92
2023/10/08 11:13:00;;;;;;;2.30;1.25;;;;;;;;;;8391144;28;20036;-92
2023/10/08 11:17:26;;;;;;;1.73;1.23;;;;;;;;;;8392255;28;20089;-95
2023/10/08 11:21:33;;;;;;;1.92;1.20;;;;;;;;;;8395121;28;20615;-94
2023/10/08 11:25:43;;;;;;;2.50;1.30;;;;;;;;;;8385886;28;20138;-92
2023/10/08 11:29:56;;;;;;;1.88;1.00;;;;;;;;;;8394187;28;20041;-95
2023/10/08 11:34:08;;;;;;;1.88;1.27;;;;;;;;;;8394539;28;20469;-92
2023/10/08 11:38:22;;;;;;;3.85;1.13;;;;;;;;;;8374953;28;20052;-92
2023/10/08 11:42:43;;;;;;;0.95;0.80;;;;;;;;;;8394715;28;20109;-92
2023/10/08 11:46:51;;;;;;;8.07;1.20;;;;;;;;;;8393352;28;20177;-95
2023/10/08 11:50:57;;;;;;;1.73;1.10;;;;;;;;;;8395089;28;20071;-94
2023/10/08 11:55:01;;;;;;;1.83;1.05;;;;;;;;;;8394825;28;20139;-92
2023/10/08 11:59:17;;;;;;;1.30;1.00;;;;;;;;;;8401134;28;20044;-92
2023/10/08 12:03:27;;;;;;;2.35;1.40;;;;;;;;;;8398613;28;20495;-95
2023/10/08 12:07:31;;;;;;;2.03;1.20;;;;;;;;;;8389230;28;20472;-95
2023/10/08 12:11:35;;;;;;;3.55;1.48;;;;;;;;;;8403424;28;20137;-93
2023/10/08 12:15:44;;;;;;;3.60;1.40;;;;;;;;;;8402947;28;20040;-95
2023/10/08 12:20:12;;;;;;;1.88;1.30;;;;;;;;;;8402361;28;20087;-94
2023/10/08 12:24:19;;;;;;;3.67;2.17;;;;;;;;;;8383666;28;20048;-93
2023/10/08 12:28:24;;;;;;;2.35;1.00;;;;;;;;;;8401897;28;20079;-95
2023/10/08 12:32:30;;;;;;;1.88;1.30;;;;;;;;;;8402946;28;20037;-94
2023/10/08 12:41:11;;;;;;;4.35;1.20;;;;;;;;;;8428152;23;20060;-96
2023/10/08 12:45:30;;;;;;;1.38;1.13;;;;;;;;;;8417495;28;20104;-96
2023/10/08 12:50:42;;;;;;;3.90;1.20;;;;;;;;;;8413431;28;20067;-96
2023/10/08 12:55:11;;;;;;;1.38;1.20;;;;;;;;;;8314023;28;20069;-95
2023/10/08 12:59:24;;;;;;;1.90;1.10;;;;;;;;;;8331341;28;20057;-93
2023/10/08 13:03:31;;;;;;;4.20;1.40;;;;;;;;;;8325102;28;20072;-94
2023/10/08 13:07:41;;;;;;;2.47;1.30;;;;;;;;;;8327056;28;20517;-94
2023/10/08 13:11:47;;;;;;;;;;;;;;;;;;8359890;28;20056;-94
2023/10/08 13:15:55;;;;;;;1.42;1.20;;;;;;;;;;8382331;28;20018;-94
2023/10/08 13:20:02;;;;;;;1.40;1.27;;;;;;;;;;8386534;28;20040;-93
2023/10/08 13:24:08;;;;;;;1.35;1.10;;;;;;;;;;8382397;28;20056;-93
2023/10/08 13:28:14;;;;;;;7.22;2.47;;;;;;;;;;8398943;28;20127;-93
2023/10/08 13:32:23;;;;;;;2.67;1.30;;;;;;;;;;8378115;28;20068;-92
2023/10/08 13:36:30;;;;;;;2.85;1.30;;;;;;;;;;8377781;28;20102;-92
2023/10/08 13:41:02;;;;;;;2.20;1.30;;;;;;;;;;8396167;28;20526;-93
2023/10/08 13:45:25;;;;;;;3.15;1.20;;;;;;;;;;8383642;28;20063;-93
2023/10/08 13:49:31;;;;;;;2.33;1.45;;;;;;;;;;8382785;28;20517;-92
2023/10/08 13:53:40;;;;;;;1.77;1.40;;;;;;;;;;8393106;28;20119;-92
2023/10/08 13:57:48;;;;;;;4.18;1.50;;;;;;;;;;8382513;28;20075;-94
2023/10/08 14:01:56;;;;;;;3.55;1.52;;;;;;;;;;8370919;28;20057;-94
2023/10/08 14:06:32;;;;;;;1.73;1.30;;;;;;;;;;8385901;28;20044;-94
2023/10/08 14:10:36;;;;;;;4.93;2.40;;;;;;;;;;8374432;28;20045;-93
2023/10/08 14:14:48;;;;;;;5.13;1.92;;;;;;;;;;8381015;28;20037;-93
2023/10/08 14:28:58;;;;;;;2.78;1.77;;;;;;;;;;8254712;28;20057;-93
2023/10/08 14:33:41;;;;;;;3.90;1.77;;;;;;;;;;8274528;28;20057;-92
2023/10/08 14:42:59;;;;;;;1.90;1.50;;;;;;;;;;8272281;28;20103;-95
2023/10/08 14:58:18;;;;;;;21.30;9.15;;;;;;;;;;8006544;29;20054;-96
2023/10/08 15:03:02;;;;;;;3.92;1.70;;;;;;;;;;8099962;29;20095;-96
2023/10/08 15:07:20;;;;;;;4.53;1.70;;;;;;;;;;8106442;29;20052;-94
2023/10/08 15:16:04;;;;;;;3.92;1.70;;;;;;;;;;8097323;29;20386;-95
2023/10/08 15:25:51;;;;;;;3.05;2.00;;;;;;;;;;8387984;28;20075;-92
2023/10/08 15:30:15;;;;;;;6.47;2.22;;;;;;;;;;8377786;28;20053;-95
2023/10/08 15:34:47;;;;;;;7.63;2.38;;;;;;;;;;8401800;28;20044;-92
2023/10/08 15:38:55;;;;;;;5.05;2.30;;;;;;;;;;8422056;22;20072;-95
2023/10/08 15:48:00;;;;;;;5.38;2.30;;;;;;;;;;8440768;22;20658;-94
2023/10/08 15:52:14;;;;;;;4.03;2.00;;;;;;;;;;8403879;28;20037;-95
2023/10/08 15:56:26;;;;;;;2.92;1.80;;;;;;;;;;8406411;28;20041;-95
2023/10/08 16:01:00;;;;;;;;;;;;;;;;;;;;;
2023/10/08 16:10:02;;;;;;;;;;;;;;;;;;8410193;28;20043;-94
2023/10/08 16:27:56;;;;;;;21.23;7.05;;;;;;;;;;8367716;28;20081;-90
2023/10/08 16:32:13;;;;;;;26.77;10.60;;;;;;;;;;8390494;28;20100;-92
2023/10/08 16:36:19;;;;;;;27.10;9.80;;;;;;;;;;8387030;28;20110;-91
2023/10/08 16:40:28;;;;;;;21.83;9.73;;;;;;;;;;8377513;28;20443;-94
2023/10/08 16:44:36;;;;;;;31.40;14.90;;;;;;;;;;8320104;28;20103;-94
2023/10/08 16:48:46;;;;;;;18.67;7.93;;;;;;;;;;8370303;28;20626;-94
2023/10/08 16:52:54;;;;;;;23.55;11.52;;;;;;;;;;8359758;28;20048;-92
2023/10/08 16:57:04;;;;;;;21.65;10.68;;;;;;;;;;8366506;28;20064;-94
2023/10/08 17:01:21;;;;;;;40.72;16.60;;;;;;;;;;8356282;28;20049;-91
2023/10/08 17:05:26;;;;;;;22.38;9.57;;;;;;;;;;8358734;28;20075;-95
2023/10/08 17:09:31;;;;;;;18.33;7.93;;;;;;;;;;8354833;28;20045;-91
2023/10/08 17:13:35;;;;;;;18.33;6.65;;;;;;;;;;8344770;28;20103;-92
2023/10/08 17:17:43;;;;;;;17.42;7.97;;;;;;;;;;8352919;28;20055;-94
2023/10/08 17:21:48;;;;;;;20.00;10.05;;;;;;;;;;8362886;28;20072;-93
2023/10/08 17:25:53;;;;;;;22.42;10.20;;;;;;;;;;8352401;28;20063;-93
2023/10/08 17:30:02;;;;;;;24.08;13.05;;;;;;;;;;8366878;28;20041;-93
2023/10/08 17:34:11;;;;;;;29.40;13.35;;;;;;;;;;8357467;28;20539;-94
2023/10/08 17:38:16;;;;;;;32.67;14.05;;;;;;;;;;8354171;28;20135;-92
2023/10/08 17:42:21;;;;;;;26.17;13.25;;;;;;;;;;8366427;28;20098;-93
2023/10/08 17:46:26;;;;;;;38.22;14.45;;;;;;;;;;8368830;28;20048;-89
2023/10/08 17:50:36;;;;;;;24.10;10.98;;;;;;;;;;8367224;28;20053;-93
2023/10/08 17:54:47;;;;;;;29.25;12.50;;;;;;;;;;8361445;28;20045;-92
2023/10/08 17:58:53;;;;;;;21.38;11.13;;;;;;;;;;8364840;28;20049;-92
2023/10/08 18:02:59;;;;;;;21.63;10.25;;;;;;;;;;8349869;28;20041;-93
2023/10/08 18:07:06;;;;;;;23.33;10.95;;;;;;;;;;8362796;28;20045;-91
2023/10/08 18:11:18;;;;;;;14.57;7.32;;;;;;;;;;8336407;28;20046;-90
2023/10/08 18:16:00;;;;;;;34.40;17.63;;;;;;;;;;8353975;28;20099;-89
2023/10/08 18:20:11;;;;;;;25.85;12.60;;;;;;;;;;8349777;28;20049;-91
2023/10/08 18:24:19;;;;;;;23.90;9.75;;;;;;;;;;8363547;28;20488;-92
2023/10/08 18:28:24;;;;;;;16.38;7.13;;;;;;;;;;8359771;28;20128;-92
2023/10/08 18:32:34;;;;;;;24.50;13.63;;;;;;;;;;8374874;28;20051;-90
2023/10/08 18:36:39;;;;;;;17.38;7.43;;;;;;;;;;8361225;28;20485;-92
2023/10/08 18:40:53;;;;;;;14.25;6.20;;;;;;;;;;8353033;28;20049;-91
2023/10/08 18:45:00;;;;;;;20.67;11.90;;;;;;;;;;8355999;28;20132;-91
2023/10/08 18:49:06;;;;;;;29.67;12.43;;;;;;;;;;8367040;28;20041;-90
2023/10/08 18:53:15;;;;;;;15.20;7.47;;;;;;;;;;8281054;28;20053;-91
2023/10/08 18:57:59;;;;;;;17.50;5.72;;;;;;;;;;8290442;28;20046;-90
2023/10/08 19:02:09;;;;;;;13.88;5.78;;;;;;;;;;8295470;28;20050;-89
2023/10/08 19:06:15;;;;;;;14.20;6.47;;;;;;;;;;8277704;28;20088;-91
2023/10/08 19:10:20;;;;;;;58.00;22.83;;;;;;;;;;8279327;28;20046;-90
2023/10/08 19:14:28;;;;;;;26.70;11.88;;;;;;;;;;8293908;28;20250;-92
2023/10/08 19:18:36;;;;;;;20.50;9.75;;;;;;;;;;8281531;28;20045;-91
2023/10/08 19:22:47;;;;;;;21.52;10.45;;;;;;;;;;8280397;28;20076;-92
2023/10/08 19:26:55;;;;;;;18.70;10.13;;;;;;;;;;8259560;28;20045;-91
2023/10/08 19:31:17;;;;;;;78.03;28.50;;;;;;;;;;8295137;28;20119;-92
2023/10/08 19:35:27;;;;;;;174.00;53.55;;;;;;;;;;8311653;28;20061;-92
2023/10/08 19:39:36;;;;;;;188.35;60.67;;;;;;;;;;8346684;28;20049;-92
2023/10/08 19:43:43;;;;;;;122.68;38.88;;;;;;;;;;8363508;28;20512;-91
2023/10/08 19:47:57;;;;;;;91.95;33.75;;;;;;;;;;8363444;28;20115;-91
2023/10/08 19:52:12;;;;;;;75.20;31.85;;;;;;;;;;8365789;28;20455;-89
2023/10/08 19:56:22;;;;;;;40.97;18.73;;;;;;;;;;8357056;28;20477;-93
2023/10/08 20:00:28;;;;;;;21.00;11.35;;;;;;;;;;8363958;28;20124;-90
2023/10/08 20:04:34;;;;;;;15.88;8.52;;;;;;;;;;8358972;28;20049;-93
2023/10/08 20:08:38;;;;;;;15.55;7.70;;;;;;;;;;8357643;28;20091;-88
2023/10/08 20:12:47;;;;;;;16.83;8.45;;;;;;;;;;8360384;28;20092;-90
2023/10/08 20:16:54;;;;;;;20.55;9.40;;;;;;;;;;8355825;28;20045;-92
2023/10/08 20:21:04;;;;;;;18.77;8.98;;;;;;;;;;8342543;28;20060;-94
2023/10/08 20:25:09;;;;;;;50.13;23.02;;;;;;;;;;8352224;28;20144;-91
2023/10/08 20:29:14;;;;;;;22.02;10.73;;;;;;;;;;8367533;28;20045;-93
2023/10/08 20:33:20;;;;;;;18.83;9.45;;;;;;;;;;8375174;28;20056;-89
2023/10/08 20:37:26;;;;;;;20.48;9.45;;;;;;;;;;8361639;28;20049;-89
2023/10/08 20:41:32;;;;;;;15.57;7.03;;;;;;;;;;8374199;28;20109;-93
2023/10/08 20:45:38;;;;;;;19.92;8.23;;;;;;;;;;8360411;28;20200;-90
2023/10/08 20:49:43;;;;;;;14.38;7.68;;;;;;;;;;8347053;28;20044;-90
2023/10/08 20:53:47;;;;;;;12.93;5.90;;;;;;;;;;8361004;28;20067;-91
2023/10/08 20:57:51;;;;;;;14.90;6.05;;;;;;;;;;8350406;28;20084;-92
2023/10/08 21:01:56;;;;;;;12.25;6.20;;;;;;;;;;8352202;28;20042;-89
2023/10/08 21:06:01;;;;;;;14.90;6.80;;;;;;;;;;8346690;28;20045;-89
2023/10/08 21:10:07;;;;;;;55.00;24.52;;;;;;;;;;8360616;28;20561;-93
2023/10/08 21:14:10;;;;;;;30.05;12.43;;;;;;;;;;8353593;28;20045;-91
2023/10/08 21:18:13;;;;;;;41.95;14.45;;;;;;;;;;8362546;28;20049;-92
2023/10/08 21:22:16;;;;;;;13.48;7.03;;;;;;;;;;8354890;28;20059;-91
2023/10/08 21:26:22;;;;;;;47.78;22.10;;;;;;;;;;8360702;28;20045;-93
2023/10/08 21:30:26;;;;;;;19.88;9.05;;;;;;;;;;8353180;28;20044;-92
2023/10/08 21:34:29;;;;;;;18.25;7.65;;;;;;;;;;8372376;28;20048;-93
2023/10/08 21:38:32;;;;;;;17.33;8.68;;;;;;;;;;8368891;28;20049;-90
2023/10/08 21:42:37;;;;;;;13.63;6.50;;;;;;;;;;8364147;28;20060;-92
2023/10/08 21:46:41;;;;;;;20.02;6.30;;;;;;;;;;8357190;28;20040;-92
2023/10/08 21:50:44;;;;;;;14.30;5.93;;;;;;;;;;8369238;28;20166;-92
2023/10/08 21:54:47;;;;;;;11.68;5.78;;;;;;;;;;8367131;28;20046;-92
2023/10/08 21:58:51;;;;;;;12.93;5.60;;;;;;;;;;8362147;28;20049;-93
2023/10/08 22:02:56;;;;;;;13.77;6.00;;;;;;;;;;8352880;28;20069;-92
2023/10/08 22:07:05;;;;;;;12.07;5.63;;;;;;;;;;8361231;28;20083;-91
2023/10/08 22:11:08;;;;;;;13.60;7.43;;;;;;;;;;8366892;28;20485;-91
2023/10/08 22:15:17;;;;;;;19.10;7.63;;;;;;;;;;8368896;28;20053;-90
2023/10/08 22:19:22;;;;;;;19.63;6.78;;;;;;;;;;8358965;28;20104;-90
2023/10/08 22:23:26;;;;;;;13.65;5.43;;;;;;;;;;8349923;28;20153;-92
2023/10/08 22:27:33;;;;;;;15.13;5.68;;;;;;;;;;8349906;28;20052;-89
2023/10/08 22:31:39;;;;;;;16.27;6.03;;;;;;;;;;8337712;28;20109;-92
2023/10/08 22:35:43;;;;;;;12.07;5.45;;;;;;;;;;8329679;28;20136;-91
2023/10/08 22:39:46;;;;;;;11.80;5.53;;;;;;;;;;8357734;28;20382;-90
2023/10/08 22:43:53;;;;;;;10.70;5.63;;;;;;;;;;8333616;28;20065;-92
2023/10/08 22:48:05;;;;;;;14.70;6.25;;;;;;;;;;8346440;28;20067;-91
2023/10/08 22:52:09;;;;;;;21.13;5.97;;;;;;;;;;8345993;28;20049;-92
2023/10/08 22:56:12;;;;;;;16.75;6.88;;;;;;;;;;8347490;28;20051;-93
2023/10/08 23:00:26;;;;;;;12.60;6.38;;;;;;;;;;8360126;28;20098;-91
2023/10/08 23:04:31;;;;;;;15.25;6.25;;;;;;;;;;8351463;28;20514;-90
2023/10/08 23:08:34;;;;;;;21.20;8.50;;;;;;;;;;8356683;28;20045;-90
2023/10/08 23:16:56;;;;;;;17.00;6.07;;;;;;;;;;8338734;28;20057;-92
2023/10/08 23:21:05;;;;;;;11.52;5.63;;;;;;;;;;8352827;28;20132;-91
2023/10/08 23:25:11;;;;;;;12.05;6.60;;;;;;;;;;8351435;28;20062;-91
2023/10/08 23:29:15;;;;;;;13.27;5.80;;;;;;;;;;8351443;28;20048;-90
2023/10/08 23:33:21;;;;;;;19.50;8.45;;;;;;;;;;8347599;28;20053;-92
2023/10/08 23:37:25;;;;;;;15.20;6.43;;;;;;;;;;8344917;28;20049;-91
2023/10/08 23:41:32;;;;;;;11.68;5.50;;;;;;;;;;8350892;28;20048;-91
2023/10/08 23:45:40;;;;;;;9.25;5.00;;;;;;;;;;8333488;28;20124;-91
2023/10/08 23:49:53;;;;;;;10.32;5.43;;;;;;;;;;8345198;28;20041;-91
2023/10/08 23:54:01;;;;;;;13.00;5.93;;;;;;;;;;8337629;28;20178;-90
2023/10/08 23:58:08;;;;;;;11.65;6.05;;;;;;;;;;8344969;28;20045;-91
